sensor_id;sensor_type;location;lat;lon;timestamp;P1;durP1;ratioP1;P2;durP2;ratioP2
55082;SDS011;40978;52.850;6.506;2023-01-10T00:01:25;20.67;;;2.08;;
55082;SDS011;40978;52.850;6.506;2023-01-10T00:03:51;19.02;;;2.22;;
55082;SDS011;40978;52.850;6.506;2023-01-10T00:06:17;14.35;;;2.00;;
55082;SDS011;40978;52.850;6.506;2023-01-10T00:08:43;16.23;;;1.95;;
55082;SDS011;40978;52.850;6.506;2023-01-10T00:11:08;12.60;;;1.73;;
55082;SDS011;40978;52.850;6.506;2023-01-10T00:13:57;15.32;;;2.25;;
55082;SDS011;40978;52.850;6.506;2023-01-10T00:16:23;19.08;;;2.58;;
55082;SDS011;40978;52.850;6.506;2023-01-10T00:18:48;15.85;;;2.25;;
55082;SDS011;40978;52.850;6.506;2023-01-10T00:21:14;14.40;;;2.47;;
55082;SDS011;40978;52.850;6.506;2023-01-10T00:23:41;19.25;;;2.33;;
55082;SDS011;40978;52.850;6.506;2023-01-10T00:26:08;19.17;;;2.63;;
55082;SDS011;40978;52.850;6.506;2023-01-10T00:28:34;19.27;;;2.40;;
55082;SDS011;40978;52.850;6.506;2023-01-10T00:31:01;19.23;;;3.00;;
55082;SDS011;40978;52.850;6.506;2023-01-10T00:33:33;21.13;;;2.97;;
55082;SDS011;40978;52.850;6.506;2023-01-10T00:36:01;19.80;;;2.92;;
55082;SDS011;40978;52.850;6.506;2023-01-10T00:38:29;24.10;;;2.90;;
55082;SDS011;40978;52.850;6.506;2023-01-10T00:40:55;22.40;;;3.40;;
55082;SDS011;40978;52.850;6.506;2023-01-10T00:43:21;17.63;;;2.90;;
55082;SDS011;40978;52.850;6.506;2023-01-10T00:46:06;22.65;;;3.40;;
55082;SDS011;40978;52.850;6.506;2023-01-10T00:48:33;22.17;;;2.85;;
55082;SDS011;40978;52.850;6.506;2023-01-10T00:50:58;22.08;;;3.15;;
55082;SDS011;40978;52.850;6.506;2023-01-10T00:53:24;20.40;;;2.65;;
55082;SDS011;40978;52.850;6.506;2023-01-10T00:55:50;21.85;;;3.08;;
55082;SDS011;40978;52.850;6.506;2023-01-10T00:58:15;26.25;;;3.25;;
55082;SDS011;40978;52.850;6.506;2023-01-10T01:00:42;25.95;;;3.50;;
55082;SDS011;40978;52.850;6.506;2023-01-10T01:03:11;21.10;;;2.97;;
55082;SDS011;40978;52.850;6.506;2023-01-10T01:05:41;23.02;;;3.15;;
55082;SDS011;40978;52.850;6.506;2023-01-10T01:08:08;18.95;;;3.25;;
55082;SDS011;40978;52.850;6.506;2023-01-10T01:10:35;22.90;;;2.63;;
55082;SDS011;40978;52.850;6.506;2023-01-10T01:13:08;25.65;;;3.53;;
55082;SDS011;40978;52.850;6.506;2023-01-10T01:15:37;26.40;;;3.25;;
55082;SDS011;40978;52.850;6.506;2023-01-10T01:18:03;24.65;;;3.65;;
55082;SDS011;40978;52.850;6.506;2023-01-10T01:20:30;23.88;;;3.97;;
55082;SDS011;40978;52.850;6.506;2023-01-10T01:22:56;19.30;;;3.40;;
55082;SDS011;40978;52.850;6.506;2023-01-10T01:25:22;23.05;;;2.90;;
55082;SDS011;40978;52.850;6.506;2023-01-10T01:27:48;21.83;;;2.88;;
55082;SDS011;40978;52.850;6.506;2023-01-10T01:30:14;16.40;;;2.10;;
55082;SDS011;40978;52.850;6.506;2023-01-10T01:32:40;19.23;;;2.92;;
55082;SDS011;40978;52.850;6.506;2023-01-10T01:35:06;15.15;;;1.98;;
55082;SDS011;40978;52.850;6.506;2023-01-10T01:37:33;12.70;;;2.70;;
55082;SDS011;40978;52.850;6.506;2023-01-10T01:39:58;19.50;;;2.58;;
55082;SDS011;40978;52.850;6.506;2023-01-10T01:42:28;17.23;;;2.95;;
55082;SDS011;40978;52.850;6.506;2023-01-10T01:48:00;19.95;;;2.53;;
55082;SDS011;40978;52.850;6.506;2023-01-10T01:56:06;26.80;;;3.95;;
55082;SDS011;40978;52.850;6.506;2023-01-10T01:58:51;21.95;;;2.95;;
55082;SDS011;40978;52.850;6.506;2023-01-10T02:01:26;19.55;;;3.13;;
55082;SDS011;40978;52.850;6.506;2023-01-10T02:03:55;22.80;;;3.10;;
55082;SDS011;40978;52.850;6.506;2023-01-10T02:06:27;22.20;;;3.22;;
55082;SDS011;40978;52.850;6.506;2023-01-10T02:09:04;27.95;;;3.13;;
55082;SDS011;40978;52.850;6.506;2023-01-10T02:11:40;21.80;;;2.90;;
55082;SDS011;40978;52.850;6.506;2023-01-10T02:14:05;17.77;;;2.55;;
55082;SDS011;40978;52.850;6.506;2023-01-10T02:16:35;21.10;;;2.67;;
55082;SDS011;40978;52.850;6.506;2023-01-10T02:19:01;21.70;;;3.10;;
55082;SDS011;40978;52.850;6.506;2023-01-10T02:32:39;17.90;;;2.72;;
55082;SDS011;40978;52.850;6.506;2023-01-10T02:38:08;13.27;;;2.58;;
55082;SDS011;40978;52.850;6.506;2023-01-10T02:43:45;20.55;;;2.40;;
55082;SDS011;40978;52.850;6.506;2023-01-10T02:46:21;20.88;;;2.63;;
55082;SDS011;40978;52.850;6.506;2023-01-10T02:48:52;17.42;;;2.28;;
55082;SDS011;40978;52.850;6.506;2023-01-10T02:51:21;19.65;;;3.20;;
55082;SDS011;40978;52.850;6.506;2023-01-10T02:53:59;21.98;;;3.00;;
55082;SDS011;40978;52.850;6.506;2023-01-10T03:05:03;21.90;;;3.22;;
55082;SDS011;40978;52.850;6.506;2023-01-10T03:10:39;19.92;;;3.47;;
55082;SDS011;40978;52.850;6.506;2023-01-10T03:16:04;22.15;;;3.28;;
55082;SDS011;40978;52.850;6.506;2023-01-10T03:18:35;17.92;;;3.10;;
55082;SDS011;40978;52.850;6.506;2023-01-10T03:21:07;15.70;;;2.83;;
55082;SDS011;40978;52.850;6.506;2023-01-10T03:23:35;17.58;;;2.97;;
55082;SDS011;40978;52.850;6.506;2023-01-10T03:26:02;17.55;;;3.22;;
55082;SDS011;40978;52.850;6.506;2023-01-10T03:28:32;15.98;;;3.25;;
55082;SDS011;40978;52.850;6.506;2023-01-10T03:31:07;17.42;;;3.22;;
55082;SDS011;40978;52.850;6.506;2023-01-10T03:33:46;27.42;;;4.13;;
55082;SDS011;40978;52.850;6.506;2023-01-10T03:36:29;19.45;;;3.60;;
55082;SDS011;40978;52.850;6.506;2023-01-10T03:42:07;17.63;;;2.78;;
55082;SDS011;40978;52.850;6.506;2023-01-10T03:44:57;12.40;;;2.42;;
55082;SDS011;40978;52.850;6.506;2023-01-10T03:47:40;14.93;;;2.67;;
55082;SDS011;40978;52.850;6.506;2023-01-10T03:50:14;19.50;;;3.30;;
55082;SDS011;40978;52.850;6.506;2023-01-10T03:52:45;18.52;;;3.03;;
55082;SDS011;40978;52.850;6.506;2023-01-10T03:55:13;20.27;;;2.67;;
55082;SDS011;40978;52.850;6.506;2023-01-10T03:57:42;24.77;;;3.83;;
55082;SDS011;40978;52.850;6.506;2023-01-10T04:00:10;16.58;;;2.97;;
55082;SDS011;40978;52.850;6.506;2023-01-10T04:02:36;18.92;;;3.33;;
55082;SDS011;40978;52.850;6.506;2023-01-10T04:05:02;20.33;;;3.13;;
55082;SDS011;40978;52.850;6.506;2023-01-10T04:07:28;22.15;;;2.83;;
55082;SDS011;40978;52.850;6.506;2023-01-10T04:09:54;22.25;;;3.15;;
55082;SDS011;40978;52.850;6.506;2023-01-10T04:12:19;20.65;;;3.20;;
55082;SDS011;40978;52.850;6.506;2023-01-10T04:14:45;26.67;;;4.03;;
55082;SDS011;40978;52.850;6.506;2023-01-10T04:17:12;26.13;;;3.70;;
55082;SDS011;40978;52.850;6.506;2023-01-10T04:19:39;32.05;;;4.28;;
55082;SDS011;40978;52.850;6.506;2023-01-10T04:22:05;25.60;;;3.05;;
55082;SDS011;40978;52.850;6.506;2023-01-10T04:24:31;21.20;;;3.55;;
55082;SDS011;40978;52.850;6.506;2023-01-10T04:26:56;22.20;;;3.58;;
55082;SDS011;40978;52.850;6.506;2023-01-10T04:29:22;20.60;;;3.20;;
55082;SDS011;40978;52.850;6.506;2023-01-10T04:31:48;23.30;;;4.10;;
55082;SDS011;40978;52.850;6.506;2023-01-10T04:34:14;27.35;;;4.15;;
55082;SDS011;40978;52.850;6.506;2023-01-10T04:36:40;29.08;;;3.45;;
55082;SDS011;40978;52.850;6.506;2023-01-10T04:39:06;21.52;;;3.35;;
55082;SDS011;40978;52.850;6.506;2023-01-10T04:41:32;32.47;;;3.55;;
55082;SDS011;40978;52.850;6.506;2023-01-10T04:43:58;27.10;;;3.55;;
55082;SDS011;40978;52.850;6.506;2023-01-10T04:46:24;27.10;;;3.30;;
55082;SDS011;40978;52.850;6.506;2023-01-10T04:48:49;29.50;;;4.35;;
55082;SDS011;40978;52.850;6.506;2023-01-10T04:51:16;26.00;;;3.38;;
55082;SDS011;40978;52.850;6.506;2023-01-10T04:53:41;22.23;;;2.95;;
55082;SDS011;40978;52.850;6.506;2023-01-10T04:56:08;23.10;;;2.72;;
55082;SDS011;40978;52.850;6.506;2023-01-10T04:58:39;23.10;;;4.05;;
55082;SDS011;40978;52.850;6.506;2023-01-10T05:01:11;23.63;;;3.63;;
55082;SDS011;40978;52.850;6.506;2023-01-10T05:03:39;25.67;;;3.85;;
55082;SDS011;40978;52.850;6.506;2023-01-10T05:06:05;23.48;;;3.15;;
55082;SDS011;40978;52.850;6.506;2023-01-10T05:08:31;25.45;;;3.85;;
55082;SDS011;40978;52.850;6.506;2023-01-10T05:10:58;26.33;;;3.28;;
55082;SDS011;40978;52.850;6.506;2023-01-10T05:13:23;30.83;;;3.30;;
55082;SDS011;40978;52.850;6.506;2023-01-10T05:15:54;26.50;;;4.68;;
55082;SDS011;40978;52.850;6.506;2023-01-10T05:18:20;23.67;;;3.80;;
55082;SDS011;40978;52.850;6.506;2023-01-10T05:20:46;28.17;;;3.65;;
55082;SDS011;40978;52.850;6.506;2023-01-10T05:23:12;24.45;;;3.42;;
55082;SDS011;40978;52.850;6.506;2023-01-10T05:25:38;29.55;;;3.80;;
55082;SDS011;40978;52.850;6.506;2023-01-10T05:28:03;29.58;;;3.88;;
55082;SDS011;40978;52.850;6.506;2023-01-10T05:30:29;28.52;;;3.47;;
55082;SDS011;40978;52.850;6.506;2023-01-10T05:32:55;28.42;;;3.72;;
55082;SDS011;40978;52.850;6.506;2023-01-10T05:35:21;25.80;;;3.60;;
55082;SDS011;40978;52.850;6.506;2023-01-10T05:37:46;28.58;;;4.18;;
55082;SDS011;40978;52.850;6.506;2023-01-10T05:40:12;28.00;;;4.53;;
55082;SDS011;40978;52.850;6.506;2023-01-10T05:42:38;28.52;;;3.38;;
55082;SDS011;40978;52.850;6.506;2023-01-10T05:45:04;31.08;;;3.28;;
55082;SDS011;40978;52.850;6.506;2023-01-10T05:47:29;29.08;;;3.35;;
55082;SDS011;40978;52.850;6.506;2023-01-10T05:49:55;28.50;;;4.07;;
55082;SDS011;40978;52.850;6.506;2023-01-10T05:52:21;23.20;;;3.90;;
55082;SDS011;40978;52.850;6.506;2023-01-10T05:54:46;33.92;;;4.72;;
55082;SDS011;40978;52.850;6.506;2023-01-10T05:57:12;33.40;;;4.03;;
55082;SDS011;40978;52.850;6.506;2023-01-10T05:59:38;24.02;;;4.00;;
55082;SDS011;40978;52.850;6.506;2023-01-10T06:02:04;26.60;;;4.47;;
55082;SDS011;40978;52.850;6.506;2023-01-10T06:04:29;26.85;;;4.32;;
55082;SDS011;40978;52.850;6.506;2023-01-10T06:06:56;29.80;;;4.72;;
55082;SDS011;40978;52.850;6.506;2023-01-10T06:09:21;33.17;;;4.30;;
55082;SDS011;40978;52.850;6.506;2023-01-10T06:11:47;29.65;;;3.85;;
55082;SDS011;40978;52.850;6.506;2023-01-10T06:14:13;31.13;;;4.03;;
55082;SDS011;40978;52.850;6.506;2023-01-10T06:16:43;29.27;;;4.05;;
55082;SDS011;40978;52.850;6.506;2023-01-10T06:19:09;29.63;;;4.22;;
55082;SDS011;40978;52.850;6.506;2023-01-10T06:21:35;29.55;;;3.90;;
55082;SDS011;40978;52.850;6.506;2023-01-10T06:24:01;29.25;;;4.60;;
55082;SDS011;40978;52.850;6.506;2023-01-10T06:26:27;33.17;;;4.38;;
55082;SDS011;40978;52.850;6.506;2023-01-10T06:28:52;26.90;;;3.45;;
55082;SDS011;40978;52.850;6.506;2023-01-10T06:31:18;28.73;;;4.47;;
55082;SDS011;40978;52.850;6.506;2023-01-10T06:33:44;31.02;;;4.15;;
55082;SDS011;40978;52.850;6.506;2023-01-10T06:36:09;28.67;;;4.28;;
55082;SDS011;40978;52.850;6.506;2023-01-10T06:38:35;35.90;;;4.95;;
55082;SDS011;40978;52.850;6.506;2023-01-10T06:41:01;34.08;;;4.70;;
55082;SDS011;40978;52.850;6.506;2023-01-10T06:43:40;34.70;;;4.30;;
55082;SDS011;40978;52.850;6.506;2023-01-10T06:46:07;31.83;;;4.18;;
55082;SDS011;40978;52.850;6.506;2023-01-10T06:48:37;26.27;;;4.82;;
55082;SDS011;40978;52.850;6.506;2023-01-10T06:51:03;33.20;;;4.60;;
55082;SDS011;40978;52.850;6.506;2023-01-10T06:53:30;26.60;;;4.65;;
55082;SDS011;40978;52.850;6.506;2023-01-10T06:55:56;35.00;;;4.45;;
55082;SDS011;40978;52.850;6.506;2023-01-10T06:58:22;25.42;;;4.28;;
55082;SDS011;40978;52.850;6.506;2023-01-10T07:00:48;33.10;;;4.15;;
55082;SDS011;40978;52.850;6.506;2023-01-10T07:03:14;31.45;;;4.60;;
55082;SDS011;40978;52.850;6.506;2023-01-10T07:05:40;24.20;;;4.10;;
55082;SDS011;40978;52.850;6.506;2023-01-10T07:08:06;27.80;;;4.15;;
55082;SDS011;40978;52.850;6.506;2023-01-10T07:10:32;23.88;;;4.28;;
55082;SDS011;40978;52.850;6.506;2023-01-10T07:12:58;38.10;;;4.68;;
55082;SDS011;40978;52.850;6.506;2023-01-10T07:15:24;36.10;;;4.78;;
55082;SDS011;40978;52.850;6.506;2023-01-10T07:17:50;23.65;;;3.95;;
55082;SDS011;40978;52.850;6.506;2023-01-10T07:20:16;28.95;;;5.00;;
55082;SDS011;40978;52.850;6.506;2023-01-10T07:22:42;30.15;;;4.70;;
55082;SDS011;40978;52.850;6.506;2023-01-10T07:25:08;26.67;;;4.35;;
55082;SDS011;40978;52.850;6.506;2023-01-10T07:27:34;30.70;;;5.32;;
55082;SDS011;40978;52.850;6.506;2023-01-10T07:29:59;21.10;;;4.13;;
55082;SDS011;40978;52.850;6.506;2023-01-10T07:32:25;29.27;;;4.50;;
55082;SDS011;40978;52.850;6.506;2023-01-10T07:34:51;27.45;;;4.47;;
55082;SDS011;40978;52.850;6.506;2023-01-10T07:37:17;28.70;;;5.25;;
55082;SDS011;40978;52.850;6.506;2023-01-10T07:39:43;36.67;;;5.40;;
55082;SDS011;40978;52.850;6.506;2023-01-10T07:42:08;34.60;;;5.03;;
55082;SDS011;40978;52.850;6.506;2023-01-10T07:44:34;33.30;;;5.20;;
55082;SDS011;40978;52.850;6.506;2023-01-10T07:47:00;38.33;;;5.65;;
55082;SDS011;40978;52.850;6.506;2023-01-10T07:49:25;36.35;;;4.53;;
55082;SDS011;40978;52.850;6.506;2023-01-10T07:51:51;30.70;;;4.70;;
55082;SDS011;40978;52.850;6.506;2023-01-10T07:54:17;32.35;;;4.72;;
55082;SDS011;40978;52.850;6.506;2023-01-10T07:56:43;35.85;;;4.30;;
55082;SDS011;40978;52.850;6.506;2023-01-10T07:59:11;29.27;;;4.63;;
55082;SDS011;40978;52.850;6.506;2023-01-10T08:01:37;27.85;;;4.90;;
55082;SDS011;40978;52.850;6.506;2023-01-10T08:04:03;26.52;;;4.40;;
55082;SDS011;40978;52.850;6.506;2023-01-10T08:06:29;33.38;;;5.32;;
55082;SDS011;40978;52.850;6.506;2023-01-10T08:08:55;34.00;;;5.90;;
55082;SDS011;40978;52.850;6.506;2023-01-10T08:11:21;34.78;;;5.20;;
55082;SDS011;40978;52.850;6.506;2023-01-10T08:13:47;29.63;;;5.13;;
55082;SDS011;40978;52.850;6.506;2023-01-10T08:16:13;28.27;;;4.97;;
55082;SDS011;40978;52.850;6.506;2023-01-10T08:18:39;33.38;;;5.82;;
55082;SDS011;40978;52.850;6.506;2023-01-10T08:21:08;30.02;;;5.75;;
55082;SDS011;40978;52.850;6.506;2023-01-10T08:23:34;33.95;;;6.10;;
55082;SDS011;40978;52.850;6.506;2023-01-10T08:26:01;26.40;;;5.68;;
55082;SDS011;40978;52.850;6.506;2023-01-10T08:28:27;29.88;;;5.90;;
55082;SDS011;40978;52.850;6.506;2023-01-10T08:30:53;31.10;;;5.15;;
55082;SDS011;40978;52.850;6.506;2023-01-10T08:33:23;27.13;;;4.82;;
55082;SDS011;40978;52.850;6.506;2023-01-10T08:35:49;29.85;;;4.75;;
55082;SDS011;40978;52.850;6.506;2023-01-10T08:38:15;20.42;;;4.53;;
55082;SDS011;40978;52.850;6.506;2023-01-10T08:40:41;30.52;;;4.93;;
55082;SDS011;40978;52.850;6.506;2023-01-10T08:43:09;23.05;;;3.67;;
55082;SDS011;40978;52.850;6.506;2023-01-10T08:45:36;26.58;;;4.38;;
55082;SDS011;40978;52.850;6.506;2023-01-10T08:48:03;32.83;;;4.72;;
55082;SDS011;40978;52.850;6.506;2023-01-10T08:50:30;29.45;;;4.47;;
55082;SDS011;40978;52.850;6.506;2023-01-10T08:52:56;24.98;;;5.15;;
55082;SDS011;40978;52.850;6.506;2023-01-10T08:55:23;29.27;;;4.82;;
55082;SDS011;40978;52.850;6.506;2023-01-10T08:57:50;24.58;;;4.38;;
55082;SDS011;40978;52.850;6.506;2023-01-10T09:00:15;28.90;;;4.55;;
55082;SDS011;40978;52.850;6.506;2023-01-10T09:02:42;35.53;;;5.32;;
55082;SDS011;40978;52.850;6.506;2023-01-10T09:05:08;25.00;;;4.40;;
55082;SDS011;40978;52.850;6.506;2023-01-10T09:07:34;24.20;;;3.85;;
55082;SDS011;40978;52.850;6.506;2023-01-10T09:10:00;28.20;;;5.00;;
55082;SDS011;40978;52.850;6.506;2023-01-10T09:12:26;33.22;;;4.85;;
55082;SDS011;40978;52.850;6.506;2023-01-10T09:15:11;27.45;;;4.30;;
55082;SDS011;40978;52.850;6.506;2023-01-10T09:17:36;25.50;;;4.40;;
55082;SDS011;40978;52.850;6.506;2023-01-10T09:20:02;28.17;;;4.35;;
55082;SDS011;40978;52.850;6.506;2023-01-10T09:22:34;27.77;;;5.20;;
55082;SDS011;40978;52.850;6.506;2023-01-10T09:25:04;24.40;;;4.15;;
55082;SDS011;40978;52.850;6.506;2023-01-10T09:27:30;31.38;;;4.93;;
55082;SDS011;40978;52.850;6.506;2023-01-10T09:29:57;27.20;;;4.38;;
55082;SDS011;40978;52.850;6.506;2023-01-10T09:32:23;26.13;;;4.22;;
55082;SDS011;40978;52.850;6.506;2023-01-10T09:34:49;28.05;;;5.10;;
55082;SDS011;40978;52.850;6.506;2023-01-10T09:37:15;24.42;;;4.13;;
55082;SDS011;40978;52.850;6.506;2023-01-10T09:39:40;23.67;;;4.60;;
55082;SDS011;40978;52.850;6.506;2023-01-10T09:48:13;24.73;;;4.68;;
55082;SDS011;40978;52.850;6.506;2023-01-10T09:53:44;30.42;;;4.47;;
55082;SDS011;40978;52.850;6.506;2023-01-10T09:56:12;23.27;;;3.97;;
55082;SDS011;40978;52.850;6.506;2023-01-10T09:58:39;22.15;;;4.53;;
55082;SDS011;40978;52.850;6.506;2023-01-10T10:01:11;21.95;;;5.13;;
55082;SDS011;40978;52.850;6.506;2023-01-10T10:06:51;28.00;;;5.10;;
55082;SDS011;40978;52.850;6.506;2023-01-10T10:09:27;27.80;;;6.03;;
55082;SDS011;40978;52.850;6.506;2023-01-10T10:14:36;24.95;;;4.45;;
55082;SDS011;40978;52.850;6.506;2023-01-10T10:26:06;33.80;;;6.43;;
55082;SDS011;40978;52.850;6.506;2023-01-10T10:28:51;27.13;;;6.80;;
55082;SDS011;40978;52.850;6.506;2023-01-10T10:34:26;34.50;;;9.00;;
55082;SDS011;40978;52.850;6.506;2023-01-10T10:37:01;29.08;;;8.48;;
55082;SDS011;40978;52.850;6.506;2023-01-10T10:39:40;34.03;;;7.78;;
55082;SDS011;40978;52.850;6.506;2023-01-10T10:42:18;28.98;;;7.43;;
55082;SDS011;40978;52.850;6.506;2023-01-10T10:47:22;35.90;;;8.98;;
55082;SDS011;40978;52.850;6.506;2023-01-10T10:52:26;33.25;;;8.20;;
55082;SDS011;40978;52.850;6.506;2023-01-10T10:54:56;32.53;;;9.88;;
55082;SDS011;40978;52.850;6.506;2023-01-10T10:57:24;32.00;;;9.52;;
55082;SDS011;40978;52.850;6.506;2023-01-10T10:59:52;32.20;;;8.90;;
55082;SDS011;40978;52.850;6.506;2023-01-10T11:02:22;24.13;;;9.02;;
55082;SDS011;40978;52.850;6.506;2023-01-10T11:04:48;27.98;;;9.52;;
55082;SDS011;40978;52.850;6.506;2023-01-10T11:07:17;28.75;;;9.27;;
55082;SDS011;40978;52.850;6.506;2023-01-10T11:09:43;29.05;;;8.43;;
55082;SDS011;40978;52.850;6.506;2023-01-10T11:12:15;28.48;;;8.32;;
55082;SDS011;40978;52.850;6.506;2023-01-10T11:14:51;27.73;;;7.93;;
55082;SDS011;40978;52.850;6.506;2023-01-10T11:17:28;31.05;;;8.27;;
55082;SDS011;40978;52.850;6.506;2023-01-10T11:20:02;30.27;;;7.55;;
55082;SDS011;40978;52.850;6.506;2023-01-10T11:22:33;27.40;;;7.70;;
55082;SDS011;40978;52.850;6.506;2023-01-10T11:25:03;29.20;;;8.68;;
55082;SDS011;40978;52.850;6.506;2023-01-10T11:27:30;27.42;;;7.28;;
55082;SDS011;40978;52.850;6.506;2023-01-10T11:30:01;27.73;;;7.05;;
55082;SDS011;40978;52.850;6.506;2023-01-10T11:32:33;25.83;;;7.15;;
55082;SDS011;40978;52.850;6.506;2023-01-10T11:35:02;28.35;;;7.20;;
55082;SDS011;40978;52.850;6.506;2023-01-10T11:38:05;26.95;;;6.78;;
55082;SDS011;40978;52.850;6.506;2023-01-10T11:40:53;25.65;;;6.57;;
55082;SDS011;40978;52.850;6.506;2023-01-10T11:43:24;21.40;;;6.05;;
55082;SDS011;40978;52.850;6.506;2023-01-10T11:45:54;27.83;;;6.25;;
55082;SDS011;40978;52.850;6.506;2023-01-10T11:48:44;29.15;;;6.30;;
55082;SDS011;40978;52.850;6.506;2023-01-10T11:51:15;29.42;;;5.85;;
55082;SDS011;40978;52.850;6.506;2023-01-10T11:54:01;25.95;;;6.50;;
55082;SDS011;40978;52.850;6.506;2023-01-10T11:56:35;26.10;;;5.57;;
55082;SDS011;40978;52.850;6.506;2023-01-10T11:59:08;25.50;;;5.57;;
55082;SDS011;40978;52.850;6.506;2023-01-10T12:04:06;33.55;;;6.35;;
55082;SDS011;40978;52.850;6.506;2023-01-10T12:06:46;24.88;;;5.57;;
55082;SDS011;40978;52.850;6.506;2023-01-10T12:12:09;21.95;;;5.38;;
55082;SDS011;40978;52.850;6.506;2023-01-10T12:14:44;28.67;;;5.13;;
55082;SDS011;40978;52.850;6.506;2023-01-10T12:17:19;21.33;;;4.55;;
55082;SDS011;40978;52.850;6.506;2023-01-10T12:19:45;27.20;;;5.10;;
55082;SDS011;40978;52.850;6.506;2023-01-10T12:22:12;23.85;;;4.82;;
55082;SDS011;40978;52.850;6.506;2023-01-10T12:24:39;22.60;;;4.55;;
55082;SDS011;40978;52.850;6.506;2023-01-10T12:27:13;24.63;;;4.38;;
55082;SDS011;40978;52.850;6.506;2023-01-10T12:32:32;23.35;;;5.55;;
55082;SDS011;40978;52.850;6.506;2023-01-10T12:35:05;26.65;;;6.03;;
55082;SDS011;40978;52.850;6.506;2023-01-10T12:37:44;22.73;;;4.93;;
55082;SDS011;40978;52.850;6.506;2023-01-10T12:43:32;28.70;;;5.95;;
55082;SDS011;40978;52.850;6.506;2023-01-10T12:46:24;26.75;;;5.35;;
55082;SDS011;40978;52.850;6.506;2023-01-10T12:49:24;21.70;;;4.80;;
55082;SDS011;40978;52.850;6.506;2023-01-10T12:51:53;22.77;;;5.13;;
55082;SDS011;40978;52.850;6.506;2023-01-10T12:54:25;24.95;;;5.07;;
55082;SDS011;40978;52.850;6.506;2023-01-10T12:56:53;24.95;;;5.75;;
55082;SDS011;40978;52.850;6.506;2023-01-10T12:59:21;26.27;;;5.53;;
55082;SDS011;40978;52.850;6.506;2023-01-10T13:01:55;26.25;;;6.10;;
55082;SDS011;40978;52.850;6.506;2023-01-10T13:04:26;28.65;;;5.90;;
55082;SDS011;40978;52.850;6.506;2023-01-10T13:06:53;22.75;;;5.28;;
55082;SDS011;40978;52.850;6.506;2023-01-10T13:09:24;27.02;;;5.85;;
55082;SDS011;40978;52.850;6.506;2023-01-10T13:14:28;18.25;;;4.55;;
55082;SDS011;40978;52.850;6.506;2023-01-10T13:22:43;28.63;;;5.18;;
55082;SDS011;40978;52.850;6.506;2023-01-10T13:25:33;24.05;;;5.78;;
55082;SDS011;40978;52.850;6.506;2023-01-10T13:28:05;18.15;;;4.57;;
55082;SDS011;40978;52.850;6.506;2023-01-10T13:30:46;31.98;;;5.18;;
55082;SDS011;40978;52.850;6.506;2023-01-10T13:33:39;25.33;;;4.60;;
55082;SDS011;40978;52.850;6.506;2023-01-10T13:36:25;29.90;;;5.78;;
55082;SDS011;40978;52.850;6.506;2023-01-10T13:39:03;19.05;;;4.93;;
55082;SDS011;40978;52.850;6.506;2023-01-10T13:52:51;26.17;;;5.10;;
55082;SDS011;40978;52.850;6.506;2023-01-10T13:55:21;20.50;;;4.05;;
55082;SDS011;40978;52.850;6.506;2023-01-10T13:57:48;27.08;;;5.28;;
55082;SDS011;40978;52.850;6.506;2023-01-10T14:06:03;22.27;;;4.68;;
55082;SDS011;40978;52.850;6.506;2023-01-10T14:08:35;26.42;;;4.90;;
55082;SDS011;40978;52.850;6.506;2023-01-10T14:11:09;23.70;;;4.32;;
55082;SDS011;40978;52.850;6.506;2023-01-10T14:16:02;25.63;;;4.88;;
55082;SDS011;40978;52.850;6.506;2023-01-10T14:18:32;23.98;;;4.45;;
55082;SDS011;40978;52.850;6.506;2023-01-10T14:21:03;28.20;;;4.70;;
55082;SDS011;40978;52.850;6.506;2023-01-10T14:23:34;29.40;;;5.57;;
55082;SDS011;40978;52.850;6.506;2023-01-10T14:26:18;24.95;;;4.25;;
55082;SDS011;40978;52.850;6.506;2023-01-10T14:28:58;25.40;;;4.88;;
55082;SDS011;40978;52.850;6.506;2023-01-10T14:31:29;29.80;;;4.40;;
55082;SDS011;40978;52.850;6.506;2023-01-10T14:33:55;23.95;;;4.35;;
55082;SDS011;40978;52.850;6.506;2023-01-10T14:36:28;20.52;;;4.22;;
55082;SDS011;40978;52.850;6.506;2023-01-10T14:38:58;24.00;;;5.55;;
55082;SDS011;40978;52.850;6.506;2023-01-10T14:41:30;20.17;;;4.07;;
55082;SDS011;40978;52.850;6.506;2023-01-10T14:44:01;24.15;;;4.18;;
55082;SDS011;40978;52.850;6.506;2023-01-10T14:46:47;20.95;;;4.47;;
55082;SDS011;40978;52.850;6.506;2023-01-10T14:57:54;19.77;;;4.28;;
55082;SDS011;40978;52.850;6.506;2023-01-10T15:00:27;23.02;;;4.25;;
55082;SDS011;40978;52.850;6.506;2023-01-10T15:02:54;29.13;;;5.22;;
55082;SDS011;40978;52.850;6.506;2023-01-10T15:05:25;19.40;;;4.05;;
55082;SDS011;40978;52.850;6.506;2023-01-10T15:07:52;21.00;;;4.65;;
55082;SDS011;40978;52.850;6.506;2023-01-10T15:10:21;26.73;;;4.65;;
55082;SDS011;40978;52.850;6.506;2023-01-10T15:12:56;17.83;;;3.70;;
55082;SDS011;40978;52.850;6.506;2023-01-10T15:15:58;21.55;;;4.68;;
55082;SDS011;40978;52.850;6.506;2023-01-10T15:18:35;20.83;;;4.50;;
55082;SDS011;40978;52.850;6.506;2023-01-10T15:21:03;20.50;;;5.03;;
55082;SDS011;40978;52.850;6.506;2023-01-10T15:23:36;20.30;;;4.97;;
55082;SDS011;40978;52.850;6.506;2023-01-10T15:26:08;20.40;;;6.32;;
55082;SDS011;40978;52.850;6.506;2023-01-10T15:31:04;21.15;;;4.45;;
55082;SDS011;40978;52.850;6.506;2023-01-10T15:33:33;23.13;;;4.22;;
55082;SDS011;40978;52.850;6.506;2023-01-10T15:36:09;21.33;;;4.03;;
55082;SDS011;40978;52.850;6.506;2023-01-10T15:38:40;20.88;;;4.13;;
55082;SDS011;40978;52.850;6.506;2023-01-10T15:41:08;27.45;;;4.50;;
55082;SDS011;40978;52.850;6.506;2023-01-10T15:43:39;20.25;;;4.30;;
55082;SDS011;40978;52.850;6.506;2023-01-10T15:46:05;18.67;;;4.40;;
55082;SDS011;40978;52.850;6.506;2023-01-10T15:48:53;18.77;;;4.15;;
55082;SDS011;40978;52.850;6.506;2023-01-10T15:56:50;20.55;;;4.00;;
55082;SDS011;40978;52.850;6.506;2023-01-10T16:02:38;23.13;;;4.40;;
55082;SDS011;40978;52.850;6.506;2023-01-10T16:05:03;31.85;;;4.65;;
55082;SDS011;40978;52.850;6.506;2023-01-10T16:07:40;21.20;;;3.75;;
55082;SDS011;40978;52.850;6.506;2023-01-10T16:12:43;17.83;;;4.13;;
55082;SDS011;40978;52.850;6.506;2023-01-10T16:15:28;19.83;;;3.50;;
55082;SDS011;40978;52.850;6.506;2023-01-10T16:17:56;21.55;;;4.28;;
55082;SDS011;40978;52.850;6.506;2023-01-10T16:20:25;20.13;;;4.15;;
55082;SDS011;40978;52.850;6.506;2023-01-10T16:22:56;18.77;;;4.00;;
55082;SDS011;40978;52.850;6.506;2023-01-10T16:25:27;28.75;;;4.22;;
55082;SDS011;40978;52.850;6.506;2023-01-10T16:27:56;20.58;;;3.90;;
55082;SDS011;40978;52.850;6.506;2023-01-10T16:30:26;23.27;;;3.70;;
55082;SDS011;40978;52.850;6.506;2023-01-10T16:32:57;20.48;;;3.78;;
55082;SDS011;40978;52.850;6.506;2023-01-10T16:35:25;18.15;;;3.72;;
55082;SDS011;40978;52.850;6.506;2023-01-10T16:37:52;18.60;;;3.67;;
55082;SDS011;40978;52.850;6.506;2023-01-10T16:42:53;19.60;;;3.45;;
55082;SDS011;40978;52.850;6.506;2023-01-10T16:45:38;26.00;;;4.97;;
55082;SDS011;40978;52.850;6.506;2023-01-10T16:48:04;20.80;;;5.07;;
55082;SDS011;40978;52.850;6.506;2023-01-10T16:50:30;20.60;;;4.47;;
55082;SDS011;40978;52.850;6.506;2023-01-10T16:52:56;18.88;;;3.90;;
55082;SDS011;40978;52.850;6.506;2023-01-10T16:55:25;20.02;;;3.95;;
55082;SDS011;40978;52.850;6.506;2023-01-10T16:58:00;25.77;;;4.68;;
55082;SDS011;40978;52.850;6.506;2023-01-10T17:00:26;19.90;;;3.25;;
55082;SDS011;40978;52.850;6.506;2023-01-10T17:02:51;21.58;;;3.55;;
55082;SDS011;40978;52.850;6.506;2023-01-10T17:05:17;24.90;;;3.97;;
55082;SDS011;40978;52.850;6.506;2023-01-10T17:07:43;24.52;;;3.70;;